Time;durP1;ratioP1;P1;durP2;ratioP2;P2;SDS_P1;SDS_P2;PMS_P1;PMS_P2;Temp;Humidity;BMP_temperature;BMP_pressure;BME280_temperature;BME280_humidity;BME280_pressure;Samples;Min_cycle;Max_cycle;Signal;HPM_P1;HPM_P2
2021/12/18 00:00:36;;;;;;;8.52;5.10;;;7.50;99.90;;;;;;5114858;28;20100;-74
2021/12/18 00:03:04;;;;;;;12.30;5.60;;;7.50;99.90;;;;;;5093389;28;20048;-74
2021/12/18 00:05:29;;;;;;;11.48;5.85;;;7.50;99.90;;;;;;5111932;28;20043;-74
2021/12/18 00:07:55;;;;;;;13.15;5.60;;;7.50;99.90;;;;;;5114731;28;20145;-75
2021/12/18 00:10:23;;;;;;;15.48;6.70;;;7.50;99.90;;;;;;5113376;28;20039;-74
2021/12/18 00:12:50;;;;;;;11.13;6.22;;;7.50;99.90;;;;;;5114665;28;20043;-74
2021/12/18 00:15:18;;;;;;;14.90;6.40;;;7.50;99.90;;;;;;5096768;28;20404;-73
2021/12/18 00:17:43;;;;;;;16.77;7.10;;;7.50;99.90;;;;;;5094282;28;20036;-74
2021/12/18 00:20:10;;;;;;;22.42;7.80;;;7.50;99.90;;;;;;5106272;28;20040;-74
2021/12/18 00:22:36;;;;;;;17.48;6.88;;;7.50;99.90;;;;;;5114010;28;20483;-75
2021/12/18 00:25:03;;;;;;;19.27;7.30;;;7.50;99.90;;;;;;5105890;28;20050;-72
2021/12/18 00:27:29;;;;;;;17.90;6.82;;;7.50;99.90;;;;;;5093892;28;20101;-74
2021/12/18 00:29:55;;;;;;;20.77;7.32;;;7.50;99.90;;;;;;5102237;28;20047;-75
2021/12/18 00:32:20;;;;;;;15.75;7.38;;;7.50;99.90;;;;;;5113245;27;20043;-74
2021/12/18 00:34:46;;;;;;;19.58;7.32;;;7.50;99.90;;;;;;5105805;28;20105;-74
2021/12/18 00:37:12;;;;;;;17.90;7.55;;;7.50;99.90;;;;;;5091446;28;20131;-75
2021/12/18 00:39:45;;;;;;;21.83;7.97;;;7.50;99.90;;;;;;5099453;28;20051;-74
2021/12/18 00:45:16;;;;;;;14.07;6.68;;;7.50;99.90;;;;;;5097017;27;20044;-72
2021/12/18 00:47:44;;;;;;;13.40;6.20;;;7.60;99.90;;;;;;5100755;28;20040;-74
2021/12/18 00:50:14;;;;;;;12.95;5.60;;;7.60;99.90;;;;;;5099784;28;20044;-74
2021/12/18 00:52:40;;;;;;;13.45;6.05;;;7.60;99.90;;;;;;5114041;28;20051;-74
2021/12/18 00:55:06;;;;;;;16.67;6.13;;;7.50;99.90;;;;;;5111374;28;20039;-72
2021/12/18 00:57:32;;;;;;;16.55;6.40;;;7.50;99.90;;;;;;5113276;28;20043;-74
2021/12/18 01:00:03;;;;;;;14.52;6.18;;;7.50;99.90;;;;;;5107154;28;20503;-74
2021/12/18 01:02:30;;;;;;;15.70;6.32;;;7.50;99.90;;;;;;5106139;28;20389;-74
2021/12/18 01:04:56;;;;;;;16.98;6.88;;;7.50;99.90;;;;;;5110217;28;20044;-74
2021/12/18 01:07:23;;;;;;;20.63;7.22;;;7.50;99.90;;;;;;5092373;28;20576;-74
2021/12/18 01:12:39;;;;;;;22.23;7.47;;;7.40;99.90;;;;;;5074216;28;20097;-74
2021/12/18 01:15:18;;;;;;;23.30;7.55;;;7.40;99.90;;;;;;5110500;28;20512;-74
2021/12/18 01:23:14;;;;;;;19.02;6.85;;;7.40;99.90;;;;;;5112022;28;20048;-74
2021/12/18 01:25:40;;;;;;;24.50;7.45;;;7.40;99.90;;;;;;5090849;28;20044;-74
2021/12/18 01:28:06;;;;;;;19.60;6.60;;;7.30;99.90;;;;;;5093026;28;20122;-74
2021/12/18 01:30:32;;;;;;;21.00;6.28;;;7.30;99.90;;;;;;5110628;28;20043;-73
2021/12/18 01:32:58;;;;;;;21.52;6.47;;;7.20;99.90;;;;;;5092923;28;20043;-74
2021/12/18 01:35:24;;;;;;;21.52;7.65;;;7.20;99.90;;;;;;5109237;28;20063;-74
2021/12/18 01:37:50;;;;;;;25.23;7.80;;;7.20;99.90;;;;;;5095364;28;20473;-74
2021/12/18 01:40:18;;;;;;;20.25;6.63;;;7.10;99.90;;;;;;5091774;28;20389;-74
2021/12/18 01:43:54;;;;;;;15.43;6.10;;;7.10;99.90;;;;;;5107718;28;20050;-74
2021/12/18 01:53:57;;;;;;;15.20;5.70;;;7.20;99.90;;;;;;5100248;28;20108;-74
2021/12/18 01:56:25;;;;;;;16.00;6.00;;;7.20;99.90;;;;;;5108935;28;20048;-74
2021/12/18 01:58:51;;;;;;;12.45;5.07;;;7.20;99.90;;;;;;5092564;28;20506;-74
2021/12/18 02:01:17;;;;;;;12.85;5.85;;;7.20;99.90;;;;;;5093246;28;20087;-74
2021/12/18 02:03:44;;;;;;;17.67;6.55;;;7.20;99.90;;;;;;5097004;28;20040;-75
2021/12/18 02:06:11;;;;;;;21.02;6.45;;;7.20;99.90;;;;;;5093395;28;20524;-74
2021/12/18 02:08:38;;;;;;;19.70;5.95;;;7.20;99.90;;;;;;5112296;28;20047;-74
2021/12/18 02:11:15;;;;;;;18.83;6.45;;;7.10;99.90;;;;;;5112895;28;20054;-74
2021/12/18 02:21:58;;;;;;;9.18;4.13;;;7.10;99.90;;;;;;5094273;28;20050;-74
2021/12/18 02:24:27;;;;;;;14.80;4.88;;;7.10;99.90;;;;;;5115896;28;20432;-74
2021/12/18 02:26:53;;;;;;;12.50;4.53;;;7.10;99.90;;;;;;5108739;28;20040;-74
2021/12/18 02:29:19;;;;;;;14.98;4.43;;;7.10;99.90;;;;;;5095666;28;20126;-74
2021/12/18 02:31:45;;;;;;;10.73;4.50;;;7.10;99.90;;;;;;5097187;28;20456;-74
2021/12/18 02:34:24;;;;;;;12.90;4.43;;;7.10;99.90;;;;;;5116408;28;20066;-74
2021/12/18 02:36:50;;;;;;;12.48;4.47;;;7.10;99.90;;;;;;5115773;28;20046;-73
2021/12/18 02:39:35;;;;;;;10.93;4.80;;;7.20;99.90;;;;;;5116378;27;20056;-74
2021/12/18 02:42:22;;;;;;;14.48;4.60;;;7.20;99.90;;;;;;5101537;28;20052;-74
2021/12/18 02:44:47;;;;;;;13.15;4.50;;;7.20;99.90;;;;;;5116143;28;20058;-74
2021/12/18 02:47:14;;;;;;;10.75;4.43;;;7.20;99.90;;;;;;5109946;28;20043;-74
2021/12/18 02:49:49;;;;;;;14.32;4.60;;;7.20;99.90;;;;;;5095286;28;20040;-74
2021/12/18 02:52:16;;;;;;;12.18;4.20;;;7.20;99.90;;;;;;5101270;28;20047;-74
2021/12/18 02:54:42;;;;;;;10.75;3.25;;;7.20;99.90;;;;;;5094576;28;20086;-74
2021/12/18 02:57:08;;;;;;;8.20;3.50;;;7.20;99.90;;;;;;5099539;28;20042;-74
2021/12/18 02:59:48;;;;;;;9.60;3.55;;;7.20;99.90;;;;;;5115439;28;20083;-74
2021/12/18 03:02:16;;;;;;;7.90;3.10;;;7.20;99.90;;;;;;5111313;28;20043;-74
2021/12/18 03:04:46;;;;;;;7.63;2.65;;;7.20;99.90;;;;;;5094049;28;20227;-74
2021/12/18 03:07:14;;;;;;;8.60;2.83;;;7.10;99.90;;;;;;5085716;28;20446;-74
2021/12/18 03:25:59;;;;;;;5.88;2.35;;;6.90;99.90;;;;;;5094346;28;20074;-74
2021/12/18 03:28:27;;;;;;;8.30;2.90;;;6.80;99.90;;;;;;5100543;28;20527;-72
2021/12/18 03:30:54;;;;;;;5.93;1.90;;;6.70;99.90;;;;;;5075054;28;20087;-74
2021/12/18 03:33:20;;;;;;;7.57;2.70;;;6.70;99.90;;;;;;5077968;28;20557;-74
2021/12/18 03:35:47;;;;;;;8.30;2.50;;;6.70;99.90;;;;;;5074325;28;20140;-74
2021/12/18 03:38:12;;;;;;;9.45;3.00;;;6.70;99.90;;;;;;5081520;28;20488;-74
2021/12/18 03:40:38;;;;;;;7.13;2.30;;;6.70;99.90;;;;;;5102909;28;20061;-74
2021/12/18 03:43:04;;;;;;;7.88;2.90;;;6.70;99.90;;;;;;5108504;28;20524;-74
2021/12/18 03:45:30;;;;;;;8.02;2.65;;;6.60;99.90;;;;;;5093512;28;20101;-73
2021/12/18 03:47:56;;;;;;;7.15;2.70;;;6.60;99.90;;;;;;5097703;28;20053;-75
2021/12/18 03:50:21;;;;;;;11.73;3.30;;;6.60;99.90;;;;;;5114573;28;20043;-74
2021/12/18 03:52:48;;;;;;;11.13;2.75;;;6.60;99.90;;;;;;5112393;28;20070;-74
2021/12/18 03:55:15;;;;;;;15.43;3.38;;;6.60;99.90;;;;;;5094605;28;20054;-74
2021/12/18 03:57:40;;;;;;;16.60;3.17;;;6.60;99.90;;;;;;5080866;28;20047;-73
2021/12/18 04:00:12;;;;;;;6.40;2.45;;;6.60;99.90;;;;;;5114883;28;20039;-75
2021/12/18 04:02:39;;;;;;;8.85;2.50;;;6.50;99.90;;;;;;5114345;28;20123;-74
2021/12/18 04:05:05;;;;;;;12.35;2.78;;;6.50;99.90;;;;;;5094545;28;20044;-74
2021/12/18 04:07:37;;;;;;;9.23;2.83;;;6.40;99.90;;;;;;5093467;28;20500;-74
2021/12/18 04:10:03;;;;;;;8.15;2.33;;;6.40;99.90;;;;;;5079045;28;20053;-74
2021/12/18 04:12:29;;;;;;;4.93;1.80;;;6.40;99.90;;;;;;5073607;28;20135;-72
2021/12/18 04:14:55;;;;;;;4.68;1.70;;;6.40;99.90;;;;;;5110192;28;20043;-74
2021/12/18 04:17:20;;;;;;;4.30;1.60;;;6.40;99.90;;;;;;5114582;28;20476;-75
2021/12/18 04:19:46;;;;;;;5.60;2.03;;;6.40;99.90;;;;;;5097169;28;20508;-75
2021/12/18 04:22:12;;;;;;;8.07;2.05;;;6.40;99.90;;;;;;5091988;28;20125;-74
2021/12/18 04:24:38;;;;;;;6.97;2.15;;;6.50;99.90;;;;;;5107837;28;20487;-74
2021/12/18 04:27:03;;;;;;;6.97;2.08;;;6.40;99.90;;;;;;5114184;28;20047;-74
2021/12/18 04:29:29;;;;;;;4.25;1.80;;;6.40;99.90;;;;;;5113579;28;20467;-74
2021/12/18 04:31:56;;;;;;;6.10;2.17;;;6.50;99.90;;;;;;5113811;28;20048;-74
2021/12/18 04:34:22;;;;;;;7.05;1.95;;;6.50;99.90;;;;;;5101960;28;20044;-74
2021/12/18 04:36:47;;;;;;;5.63;1.70;;;6.40;99.90;;;;;;5092062;28;20093;-74
2021/12/18 04:39:13;;;;;;;5.75;1.95;;;6.40;99.90;;;;;;5103120;28;20056;-75
2021/12/18 04:41:48;;;;;;;5.28;2.17;;;6.40;99.90;;;;;;5113476;28;20052;-74
2021/12/18 04:44:14;;;;;;;5.18;2.10;;;6.40;99.90;;;;;;5101490;28;20119;-74
2021/12/18 04:46:39;;;;;;;8.43;2.20;;;6.40;99.90;;;;;;5092120;28;20110;-74
2021/12/18 04:49:05;;;;;;;7.45;2.20;;;6.40;99.90;;;;;;5093715;28;20040;-74
2021/12/18 04:51:31;;;;;;;7.00;2.38;;;6.30;99.90;;;;;;5093503;28;20051;-74
2021/12/18 04:53:57;;;;;;;8.23;2.30;;;6.40;99.90;;;;;;5101436;28;20039;-75
2021/12/18 04:56:23;;;;;;;9.32;2.40;;;6.30;99.90;;;;;;5113706;28;20108;-74
2021/12/18 04:58:49;;;;;;;7.38;2.20;;;6.30;99.90;;;;;;5111180;28;20088;-74
2021/12/18 05:01:16;;;;;;;7.20;2.30;;;6.30;99.90;;;;;;5093669;28;20055;-75
2021/12/18 05:03:42;;;;;;;6.88;2.10;;;6.30;99.90;;;;;;5097265;28;20496;-74
2021/12/18 05:06:08;;;;;;;5.93;1.88;;;6.20;99.90;;;;;;5113371;28;20050;-73
2021/12/18 05:08:34;;;;;;;5.15;1.67;;;6.20;99.90;;;;;;5110370;28;20151;-72
2021/12/18 05:11:00;;;;;;;10.05;2.20;;;6.20;99.90;;;;;;5087035;28;20076;-74
2021/12/18 05:13:25;;;;;;;9.40;2.40;;;6.20;99.90;;;;;;5109740;28;20120;-74
2021/12/18 05:15:51;;;;;;;9.27;2.35;;;6.20;99.90;;;;;;5112843;28;20040;-74
2021/12/18 05:18:17;;;;;;;10.27;2.40;;;6.10;99.90;;;;;;5096456;28;20485;-74
2021/12/18 05:20:43;;;;;;;6.65;1.98;;;6.10;99.90;;;;;;5109346;28;20051;-74
2021/12/18 05:23:08;;;;;;;10.65;2.65;;;6.10;99.90;;;;;;5104545;28;20036;-74
2021/12/18 05:25:34;;;;;;;7.93;2.67;;;6.10;99.90;;;;;;5092975;28;20460;-74
2021/12/18 05:28:00;;;;;;;11.85;2.78;;;6.20;99.90;;;;;;5105186;28;20081;-74
2021/12/18 05:30:26;;;;;;;10.30;2.92;;;6.10;99.90;;;;;;5101111;28;20047;-74
2021/12/18 05:32:51;;;;;;;7.80;2.40;;;6.10;99.90;;;;;;5092301;28;20538;-74
2021/12/18 05:35:18;;;;;;;5.78;1.80;;;6.10;99.90;;;;;;5096745;28;20033;-74
2021/12/18 05:40:15;;;;;;;8.23;2.30;;;6.10;99.90;;;;;;5100534;28;20051;-74
2021/12/18 05:42:41;;;;;;;7.28;2.17;;;6.20;99.90;;;;;;5112721;28;20372;-73
2021/12/18 05:45:07;;;;;;;6.10;2.00;;;6.20;99.90;;;;;;5111398;28;20039;-74
2021/12/18 05:47:34;;;;;;;7.07;2.53;;;6.20;99.90;;;;;;5108283;28;20515;-74
2021/12/18 05:50:00;;;;;;;5.55;2.25;;;6.30;99.90;;;;;;5077554;28;20629;-74
2021/12/18 05:52:26;;;;;;;6.55;2.10;;;6.20;99.90;;;;;;5092666;28;20047;-74
2021/12/18 05:54:51;;;;;;;7.72;2.40;;;6.20;99.90;;;;;;5092202;28;20136;-74
2021/12/18 05:57:17;;;;;;;7.35;2.63;;;6.20;99.90;;;;;;5092636;28;20480;-74
2021/12/18 05:59:44;;;;;;;8.18;2.50;;;6.20;99.90;;;;;;5091998;28;20058;-74
2021/12/18 06:02:10;;;;;;;8.00;2.70;;;6.20;99.90;;;;;;5094857;28;20577;-74
2021/12/18 06:04:36;;;;;;;6.15;2.00;;;6.20;99.90;;;;;;5093553;28;20074;-74
2021/12/18 06:07:06;;;;;;;4.22;1.50;;;6.10;99.90;;;;;;5091731;28;20678;-74
2021/12/18 06:09:36;;;;;;;7.32;1.90;;;6.10;99.90;;;;;;5093665;28;20124;-74
2021/12/18 06:12:03;;;;;;;8.18;2.22;;;6.10;99.90;;;;;;5089821;28;20281;-74
2021/12/18 06:14:29;;;;;;;6.53;2.10;;;6.10;99.90;;;;;;5093066;28;20040;-74
2021/12/18 06:16:55;;;;;;;9.20;2.22;;;6.10;99.90;;;;;;5092135;28;20101;-74
2021/12/18 06:19:21;;;;;;;6.57;2.20;;;6.10;99.90;;;;;;5092624;28;20047;-75
2021/12/18 06:21:47;;;;;;;8.80;2.30;;;6.10;99.90;;;;;;5111132;28;20373;-74
2021/12/18 06:24:13;;;;;;;10.15;2.50;;;6.10;99.90;;;;;;5098514;28;20437;-74
2021/12/18 06:26:39;;;;;;;11.82;2.65;;;6.10;99.90;;;;;;5102379;28;20135;-75
2021/12/18 06:29:04;;;;;;;14.05;3.35;;;6.10;99.90;;;;;;5091735;28;20050;-75
2021/12/18 06:31:33;;;;;;;7.47;2.70;;;6.10;99.90;;;;;;5107869;28;20450;-75
2021/12/18 06:33:59;;;;;;;10.15;3.25;;;6.10;99.90;;;;;;5111696;28;20122;-74
2021/12/18 06:36:25;;;;;;;9.40;2.88;;;6.10;99.90;;;;;;5077522;28;20131;-74
2021/12/18 06:38:51;;;;;;;9.80;3.05;;;6.10;99.90;;;;;;5096189;28;20491;-74
2021/12/18 06:41:16;;;;;;;10.70;3.38;;;6.20;99.90;;;;;;5112142;28;20052;-74
2021/12/18 06:43:42;;;;;;;9.18;2.83;;;6.20;99.90;;;;;;5109644;28;20408;-74
2021/12/18 06:46:08;;;;;;;11.20;3.47;;;6.20;99.90;;;;;;5111926;28;20058;-75
2021/12/18 06:48:34;;;;;;;13.75;3.55;;;6.20;99.90;;;;;;5110413;28;20391;-74
2021/12/18 06:51:00;;;;;;;11.55;3.53;;;6.20;99.90;;;;;;5111872;28;20047;-74
2021/12/18 06:53:26;;;;;;;12.95;3.13;;;6.30;99.90;;;;;;5112593;28;20051;-75
2021/12/18 06:55:52;;;;;;;11.45;3.38;;;6.30;99.90;;;;;;5103281;28;20046;-74
2021/12/18 06:58:17;;;;;;;10.38;2.90;;;6.30;99.90;;;;;;5112622;28;20046;-74
2021/12/18 07:00:43;;;;;;;9.15;3.05;;;6.30;99.90;;;;;;5092777;28;20502;-75
2021/12/18 07:03:09;;;;;;;13.35;3.45;;;6.30;99.90;;;;;;5074780;28;20044;-74
2021/12/18 07:05:35;;;;;;;13.95;3.40;;;6.30;99.90;;;;;;5107444;28;20082;-75
2021/12/18 07:08:00;;;;;;;11.30;3.15;;;6.30;99.90;;;;;;5115311;28;20035;-74
2021/12/18 07:10:26;;;;;;;8.98;2.92;;;6.30;99.90;;;;;;5101578;28;20128;-75
2021/12/18 07:12:52;;;;;;;9.68;2.67;;;6.30;99.90;;;;;;5093778;28;20043;-74
2021/12/18 07:15:17;;;;;;;6.57;2.17;;;6.30;99.90;;;;;;5099741;28;20046;-74
2021/12/18 07:17:43;;;;;;;7.43;2.58;;;6.30;99.90;;;;;;5096540;28;20040;-75
2021/12/18 07:20:10;;;;;;;6.10;2.30;;;6.40;99.90;;;;;;5094711;28;20677;-74
2021/12/18 07:22:36;;;;;;;8.35;2.50;;;6.40;99.90;;;;;;5105320;28;20044;-75
2021/12/18 07:25:03;;;;;;;11.63;2.65;;;6.40;99.90;;;;;;5112325;28;20058;-75
2021/12/18 07:27:29;;;;;;;7.05;2.58;;;6.40;99.90;;;;;;5103403;28;20185;-75
2021/12/18 07:29:55;;;;;;;7.68;2.55;;;6.40;99.90;;;;;;5113896;28;20077;-74
2021/12/18 07:32:20;;;;;;;9.52;2.80;;;6.40;99.90;;;;;;5108484;28;20055;-75
2021/12/18 07:34:46;;;;;;;7.57;2.83;;;6.40;99.90;;;;;;5094647;28;20547;-75
2021/12/18 07:37:12;;;;;;;9.82;2.78;;;6.40;99.90;;;;;;5090330;28;20123;-74
2021/12/18 07:39:37;;;;;;;7.53;2.63;;;6.40;99.90;;;;;;5115317;28;20074;-75
2021/12/18 07:42:03;;;;;;;8.45;3.35;;;6.40;99.90;;;;;;5114115;28;20122;-74
2021/12/18 07:44:29;;;;;;;8.68;2.70;;;6.50;99.90;;;;;;5115209;28;20066;-75
2021/12/18 07:46:55;;;;;;;8.73;2.80;;;6.40;99.90;;;;;;5099803;28;20045;-73
2021/12/18 07:49:20;;;;;;;9.60;3.00;;;6.50;99.90;;;;;;5115430;28;20135;-74
2021/12/18 07:51:46;;;;;;;8.77;3.05;;;6.40;99.90;;;;;;5115026;28;20040;-74
2021/12/18 07:54:12;;;;;;;11.65;3.10;;;6.50;99.90;;;;;;5094208;28;20845;-74
2021/12/18 07:56:38;;;;;;;10.73;3.30;;;6.40;99.90;;;;;;5092874;28;20044;-74
2021/12/18 07:59:04;;;;;;;10.85;3.67;;;6.50;99.90;;;;;;5125760;27;20051;-74
2021/12/18 08:01:29;;;;;;;10.10;3.80;;;6.50;99.90;;;;;;5114888;28;20127;-75
2021/12/18 08:03:55;;;;;;;11.95;3.97;;;6.50;99.90;;;;;;5098014;28;20044;-73
2021/12/18 08:06:21;;;;;;;12.05;3.78;;;6.50;99.90;;;;;;5094290;28;20534;-75
2021/12/18 08:08:48;;;;;;;8.77;3.75;;;6.50;99.90;;;;;;5098943;28;20206;-75
2021/12/18 08:11:15;;;;;;;11.48;3.55;;;6.60;99.90;;;;;;5093392;28;20093;-75
2021/12/18 08:13:41;;;;;;;9.40;3.25;;;6.50;99.90;;;;;;5110603;28;20111;-74
2021/12/18 08:16:07;;;;;;;9.40;3.25;;;6.60;99.90;;;;;;5105448;28;20453;-75
2021/12/18 08:18:32;;;;;;;9.38;3.90;;;6.60;99.90;;;;;;5092075;28;20119;-75
2021/12/18 08:20:58;;;;;;;11.65;3.50;;;6.60;99.90;;;;;;5087991;28;20504;-73
2021/12/18 08:23:24;;;;;;;8.35;3.53;;;6.70;99.90;;;;;;5073762;28;20045;-75
2021/12/18 08:25:50;;;;;;;7.90;3.60;;;6.60;99.90;;;;;;5079008;28;20028;-75
2021/12/18 08:28:16;;;;;;;8.15;3.17;;;6.60;99.90;;;;;;5093121;28;20374;-75
2021/12/18 08:30:42;;;;;;;7.63;3.28;;;6.70;99.90;;;;;;5093370;28;20059;-74
2021/12/18 08:33:08;;;;;;;10.98;4.07;;;6.60;99.90;;;;;;5087064;28;20500;-72
2021/12/18 08:35:35;;;;;;;12.95;4.55;;;6.70;99.90;;;;;;5084104;28;20040;-74
2021/12/18 08:38:02;;;;;;;10.00;3.28;;;6.70;99.90;;;;;;5113668;28;20122;-72
2021/12/18 08:40:29;;;;;;;10.25;3.55;;;6.70;99.90;;;;;;5108666;27;20044;-74
2021/12/18 08:42:55;;;;;;;10.82;3.92;;;6.70;99.90;;;;;;5092163;28;20048;-75
2021/12/18 08:45:22;;;;;;;10.50;3.90;;;6.70;99.90;;;;;;5092486;28;20055;-75
2021/12/18 08:47:48;;;;;;;11.02;4.20;;;6.70;99.90;;;;;;5093805;28;20047;-75
2021/12/18 08:50:17;;;;;;;11.18;4.28;;;6.70;99.90;;;;;;5095648;28;20427;-76
2021/12/18 08:52:44;;;;;;;10.38;4.30;;;6.80;99.90;;;;;;5096969;28;20044;-76
2021/12/18 08:55:10;;;;;;;11.10;4.28;;;6.70;99.90;;;;;;5079728;28;20040;-76
2021/12/18 08:57:36;;;;;;;11.73;4.95;;;6.80;99.90;;;;;;5085349;28;20123;-77
2021/12/18 09:00:04;;;;;;;11.95;5.40;;;6.80;99.90;;;;;;5113183;28;20066;-74
2021/12/18 09:02:30;;;;;;;13.27;5.50;;;6.90;99.90;;;;;;5111841;28;20113;-76
2021/12/18 09:04:56;;;;;;;10.95;6.22;;;6.90;99.90;;;;;;5073126;28;20444;-76
2021/12/18 09:07:22;;;;;;;13.95;6.32;;;6.90;99.90;;;;;;5078568;28;20035;-76
2021/12/18 09:09:48;;;;;;;10.27;5.68;;;6.90;99.90;;;;;;5113428;28;20100;-76
2021/12/18 09:12:14;;;;;;;11.13;5.60;;;6.90;99.90;;;;;;5111029;28;20043;-76
2021/12/18 09:14:40;;;;;;;12.05;5.47;;;6.90;99.90;;;;;;5094733;28;20033;-76
2021/12/18 09:17:07;;;;;;;10.30;5.97;;;6.90;99.90;;;;;;5092178;28;20048;-75
2021/12/18 09:19:33;;;;;;;10.45;5.97;;;7.00;99.90;;;;;;5107894;28;20040;-77
2021/12/18 09:21:59;;;;;;;11.77;6.15;;;7.00;99.90;;;;;;5105332;28;20047;-75
2021/12/18 09:24:25;;;;;;;12.68;6.28;;;7.00;99.90;;;;;;5112139;28;20048;-77
2021/12/18 09:26:51;;;;;;;10.90;5.72;;;7.00;99.90;;;;;;5096400;28;20396;-77
2021/12/18 09:29:19;;;;;;;11.68;5.63;;;7.10;99.90;;;;;;5092087;28;20048;-77
2021/12/18 09:31:45;;;;;;;12.23;5.85;;;7.10;99.90;;;;;;5092870;28;20109;-76
2021/12/18 09:34:10;;;;;;;12.10;5.55;;;7.10;99.90;;;;;;5091217;28;20044;-75
2021/12/18 09:36:36;;;;;;;12.27;5.88;;;7.10;99.90;;;;;;5082966;28;20048;-76
2021/12/18 09:39:03;;;;;;;10.70;5.13;;;7.10;99.90;;;;;;5072379;28;20084;-76
2021/12/18 09:41:29;;;;;;;12.90;5.55;;;7.20;99.90;;;;;;5072034;28;20096;-76
2021/12/18 09:43:55;;;;;;;12.93;5.53;;;7.20;99.90;;;;;;5096437;28;20101;-72
2021/12/18 09:46:21;;;;;;;11.48;5.50;;;7.20;99.90;;;;;;5089887;28;20044;-74
2021/12/18 09:48:46;;;;;;;10.13;5.00;;;7.20;99.90;;;;;;5064453;28;20040;-73
2021/12/18 09:51:24;;;;;;;10.05;5.03;;;7.20;99.90;;;;;;5080452;28;20083;-76
2021/12/18 09:53:53;;;;;;;11.02;5.55;;;7.30;99.90;;;;;;5095317;28;20435;-74
2021/12/18 09:56:19;;;;;;;12.38;5.38;;;7.30;99.90;;;;;;5091787;28;20072;-76
2021/12/18 09:58:45;;;;;;;9.90;5.22;;;7.30;99.90;;;;;;5100754;28;20055;-76
2021/12/18 10:01:11;;;;;;;11.02;5.75;;;7.30;99.90;;;;;;5089181;28;20051;-76
2021/12/18 10:03:52;;;;;;;11.20;5.72;;;7.30;99.90;;;;;;5104951;28;20075;-75
2021/12/18 10:06:47;;;;;;;12.93;5.82;;;7.30;99.90;;;;;;5091479;28;20041;-75
2021/12/18 10:09:31;;;;;;;11.80;5.88;;;7.40;99.90;;;;;;5065374;28;20072;-75
2021/12/18 10:12:00;;;;;;;13.02;6.32;;;7.40;99.90;;;;;;5077597;28;20040;-75
2021/12/18 10:14:33;;;;;;;16.25;7.07;;;7.40;99.90;;;;;;5088148;28;20115;-75
2021/12/18 10:16:59;;;;;;;15.52;6.95;;;7.50;99.90;;;;;;5084972;28;20040;-75
2021/12/18 10:19:32;;;;;;;16.15;7.10;;;7.50;99.90;;;;;;5087050;28;20481;-74
2021/12/18 10:22:02;;;;;;;15.20;7.20;;;7.50;99.90;;;;;;5098843;28;20131;-76
2021/12/18 10:24:28;;;;;;;14.82;7.38;;;7.50;99.90;;;;;;5088524;28;20062;-75
2021/12/18 10:26:54;;;;;;;13.32;7.90;;;7.50;99.90;;;;;;5091140;28;20075;-75
2021/12/18 10:29:29;;;;;;;15.55;7.85;;;7.60;99.90;;;;;;5091110;28;20500;-75
2021/12/18 10:32:03;;;;;;;18.58;7.82;;;7.60;99.90;;;;;;5104063;28;20055;-74
2021/12/18 10:34:28;;;;;;;14.63;7.68;;;7.70;99.90;;;;;;5081071;28;20105;-75
2021/12/18 10:37:21;;;;;;;15.27;8.23;;;7.70;99.90;;;;;;5095999;28;20048;-76
2021/12/18 10:40:04;;;;;;;14.88;8.05;;;7.70;99.90;;;;;;5091954;28;20431;-75
2021/12/18 10:42:32;;;;;;;17.60;8.65;;;7.80;99.90;;;;;;5104273;28;20044;-75
2021/12/18 10:45:20;;;;;;;17.98;9.13;;;7.80;99.90;;;;;;5093095;28;20032;-75
2021/12/18 10:48:04;;;;;;;17.23;8.63;;;7.80;99.90;;;;;;5092125;28;20127;-75
2021/12/18 10:50:45;;;;;;;17.13;8.43;;;7.90;99.90;;;;;;5091640;28;20048;-75
2021/12/18 10:53:16;;;;;;;15.75;8.15;;;7.90;99.90;;;;;;5099201;28;20142;-73
2021/12/18 10:56:14;;;;;;;16.05;8.25;;;7.90;99.90;;;;;;5092735;28;20055;-76
2021/12/18 10:58:40;;;;;;;15.02;8.10;;;7.90;99.90;;;;;;5073797;28;20048;-75
2021/12/18 11:01:15;;;;;;;15.88;8.07;;;7.90;99.90;;;;;;5092491;28;20048;-74
2021/12/18 11:03:50;;;;;;;13.30;8.25;;;8.00;99.90;;;;;;5080466;28;20048;-75
2021/12/18 11:06:35;;;;;;;16.70;7.95;;;8.00;99.90;;;;;;5091017;28;20040;-73
2021/12/18 11:09:13;;;;;;;13.93;7.63;;;8.00;99.90;;;;;;5092494;28;20441;-74
2021/12/18 11:14:12;;;;;;;14.23;7.80;;;8.00;99.90;;;;;;5071754;28;20056;-74
2021/12/18 11:16:41;;;;;;;15.85;8.35;;;8.10;99.90;;;;;;5077246;28;20075;-76
2021/12/18 11:19:11;;;;;;;19.63;9.20;;;8.10;99.90;;;;;;5098442;28;20085;-76
2021/12/18 11:21:38;;;;;;;15.15;8.73;;;8.20;99.90;;;;;;5082042;28;20048;-76
2021/12/18 11:24:06;;;;;;;16.30;9.60;;;8.20;99.90;;;;;;5084889;28;20591;-76
2021/12/18 11:26:44;;;;;;;16.48;8.63;;;8.20;99.90;;;;;;5109304;28;20041;-76
2021/12/18 11:29:21;;;;;;;11.93;6.47;;;8.30;99.90;;;;;;5111100;28;20039;-76
2021/12/18 11:31:47;;;;;;;11.70;7.53;;;8.30;99.90;;;;;;5095384;28;20044;-77
2021/12/18 11:34:14;;;;;;;14.02;7.07;;;8.30;99.90;;;;;;5095041;28;20119;-77
2021/12/18 11:36:43;;;;;;;12.32;6.60;;;8.30;99.90;;;;;;5084353;28;20045;-76
2021/12/18 11:39:10;;;;;;;12.38;5.95;;;8.40;99.90;;;;;;5092263;28;20051;-76
2021/12/18 11:41:38;;;;;;;11.45;6.22;;;8.40;99.90;;;;;;5111177;28;20060;-76
2021/12/18 11:44:34;;;;;;;10.52;5.63;;;8.50;99.90;;;;;;5088665;28;20559;-75
2021/12/18 11:47:38;;;;;;;12.10;5.88;;;8.50;99.90;;;;;;5078669;28;20058;-74
2021/12/18 11:50:19;;;;;;;11.38;5.97;;;8.50;99.90;;;;;;5091777;28;20043;-78
2021/12/18 11:53:11;;;;;;;;;;;8.60;99.90;;;;;;5098456;28;20475;-77
2021/12/18 11:55:58;;;;;;;12.95;6.28;;;8.50;99.90;;;;;;5090492;28;19920;-77
2021/12/18 11:58:35;;;;;;;9.07;5.72;;;8.60;99.90;;;;;;5105517;28;20304;-77
2021/12/18 12:01:25;;;;;;;8.68;5.60;;;8.70;99.90;;;;;;5087375;28;20040;-75
2021/12/18 12:03:50;;;;;;;9.38;5.28;;;8.70;99.90;;;;;;5087884;28;20036;-74
2021/12/18 12:06:25;;;;;;;8.38;4.80;;;8.70;99.90;;;;;;5096612;28;20188;-77
2021/12/18 12:09:17;;;;;;;8.73;5.82;;;8.80;99.90;;;;;;5099528;28;20048;-77
2021/12/18 12:11:55;;;;;;;10.85;4.60;;;8.70;99.90;;;;;;5083268;28;20400;-74
2021/12/18 12:14:22;;;;;;;8.20;4.60;;;8.80;99.90;;;;;;5096773;28;20048;-73
2021/12/18 12:16:48;;;;;;;6.15;3.85;;;8.80;99.90;;;;;;5099492;28;20048;-75
2021/12/18 12:19:19;;;;;;;8.48;4.53;;;8.70;99.90;;;;;;5091702;28;20089;-77
2021/12/18 12:21:47;;;;;;;10.88;4.00;;;8.80;99.90;;;;;;5109822;28;20086;-76
2021/12/18 12:24:15;;;;;;;7.88;4.22;;;8.80;99.90;;;;;;5095279;28;20377;-77
2021/12/18 12:26:41;;;;;;;7.03;3.90;;;8.80;99.90;;;;;;5092692;28;20063;-76
2021/12/18 12:29:09;;;;;;;8.82;4.32;;;8.80;99.90;;;;;;5082824;28;20410;-76
2021/12/18 12:31:36;;;;;;;7.45;4.28;;;8.80;99.90;;;;;;5100720;28;20044;-77
2021/12/18 12:34:23;;;;;;;9.52;4.30;;;8.80;99.90;;;;;;5101505;28;20127;-77
2021/12/18 12:36:57;;;;;;;8.95;4.57;;;8.80;99.90;;;;;;5073054;28;20159;-78
2021/12/18 12:39:24;;;;;;;8.93;4.03;;;8.80;99.90;;;;;;5087880;28;20063;-73
2021/12/18 12:41:52;;;;;;;7.88;4.00;;;8.90;99.90;;;;;;5073290;28;20044;-78
2021/12/18 12:44:28;;;;;;;8.60;4.18;;;8.90;99.90;;;;;;5093109;28;20039;-76
2021/12/18 12:47:18;;;;;;;8.65;3.95;;;8.90;99.90;;;;;;5093221;28;20059;-77
2021/12/18 12:49:47;;;;;;;8.38;3.75;;;8.90;99.90;;;;;;5101777;28;20063;-77
2021/12/18 12:52:15;;;;;;;8.95;4.00;;;8.80;99.90;;;;;;5109572;28;20048;-77
2021/12/18 12:54:57;;;;;;;9.65;4.10;;;8.90;99.90;;;;;;5093866;28;20035;-77
2021/12/18 12:57:23;;;;;;;6.20;4.05;;;8.90;99.90;;;;;;5093400;28;20040;-74
2021/12/18 12:59:50;;;;;;;7.90;3.83;;;8.90;99.90;;;;;;5098964;28;20047;-77
2021/12/18 13:02:16;;;;;;;8.13;4.13;;;8.90;99.90;;;;;;5113511;28;20050;-77
2021/12/18 13:04:42;;;;;;;7.20;4.22;;;8.90;99.90;;;;;;5090931;28;20036;-77
2021/12/18 13:07:09;;;;;;;9.52;4.43;;;8.80;99.90;;;;;;5093211;28;20050;-77
2021/12/18 13:09:43;;;;;;;7.63;4.57;;;8.80;99.90;;;;;;5099500;28;20430;-78
2021/12/18 13:12:09;;;;;;;7.63;4.47;;;8.80;99.90;;;;;;5113492;28;20460;-78
2021/12/18 13:14:43;;;;;;;7.30;4.95;;;8.90;99.90;;;;;;5100886;28;20232;-77
2021/12/18 13:17:20;;;;;;;7.90;4.78;;;8.90;99.90;;;;;;5090987;28;20123;-76
2021/12/18 13:19:58;;;;;;;7.50;4.60;;;9.00;99.90;;;;;;5083153;28;20037;-76
2021/12/18 13:22:29;;;;;;;9.52;4.70;;;9.00;99.90;;;;;;5101465;28;20047;-77
2021/12/18 13:25:07;;;;;;;9.52;4.60;;;9.00;99.90;;;;;;5113432;28;20051;-77
2021/12/18 13:27:35;;;;;;;5.85;4.32;;;9.00;99.90;;;;;;5097399;28;20083;-77
2021/12/18 13:30:14;;;;;;;7.95;4.63;;;9.00;99.90;;;;;;5113256;28;20048;-76
2021/12/18 13:32:58;;;;;;;6.63;4.80;;;9.00;99.90;;;;;;5104299;28;20105;-77
2021/12/18 13:35:27;;;;;;;7.68;5.00;;;9.00;99.90;;;;;;5082747;28;20119;-77
2021/12/18 13:38:06;;;;;;;7.28;4.68;;;9.00;99.90;;;;;;5093030;28;20048;-76
2021/12/18 13:40:47;;;;;;;8.07;5.07;;;8.90;99.90;;;;;;5092221;28;20059;-77
2021/12/18 13:43:17;;;;;;;;;;;8.90;99.90;;;;;;5111304;28;20043;-78
2021/12/18 13:46:08;;;;;;;7.07;4.37;;;9.00;99.90;;;;;;5103934;28;19963;-77
2021/12/18 13:48:42;;;;;;;5.88;3.78;;;8.90;99.90;;;;;;5079148;28;20071;-77
2021/12/18 13:51:10;;;;;;;5.47;3.10;;;9.00;99.90;;;;;;5106348;28;20044;-77